createdAt,value
2017-10-17T00:00:38.180Z,95.89
2017-10-17T00:03:06.631Z,96.05
2017-10-17T00:05:35.235Z,96.02
2017-10-17T00:08:04.470Z,96.05
2017-10-17T00:10:32.909Z,95.87
2017-10-17T00:13:02.254Z,95.99
2017-10-17T00:15:30.692Z,95.84
2017-10-17T00:17:59.928Z,95.89
2017-10-17T00:20:28.414Z,95.78
2017-10-17T00:22:56.898Z,96.02
2017-10-17T00:25:25.342Z,95.90
2017-10-17T00:27:54.685Z,96.48
2017-10-17T00:30:29.121Z,96.15
2017-10-17T00:33:03.110Z,96.30
2017-10-17T00:38:29.364Z,96.86
2017-10-17T00:40:57.810Z,96.65
2017-10-17T00:43:30.485Z,96.90
2017-10-17T00:46:01.263Z,96.63
2017-10-17T00:48:29.730Z,97.16
2017-10-17T00:53:55.792Z,96.63
2017-10-17T00:56:24.228Z,96.68
2017-10-17T00:58:53.453Z,96.50
2017-10-17T01:01:21.959Z,96.52
2017-10-17T01:03:50.427Z,96.36
2017-10-17T01:06:18.870Z,96.25
2017-10-17T01:08:48.105Z,96.48
2017-10-17T01:11:16.552Z,96.42
2017-10-17T01:13:45.767Z,97.22
2017-10-17T01:16:14.225Z,97.00
2017-10-17T01:18:42.678Z,97.06
2017-10-17T01:21:15.718Z,97.33
2017-10-17T01:26:51.821Z,97.19
2017-10-17T01:29:29.526Z,97.37
2017-10-17T01:31:58.112Z,96.96
2017-10-17T01:34:41.079Z,97.34
2017-10-17T01:37:09.608Z,97.08
2017-10-17T01:39:48.805Z,97.08
2017-10-17T01:42:19.895Z,96.91
2017-10-17T01:44:49.201Z,96.74
2017-10-17T01:47:18.394Z,97.44
2017-10-17T01:49:48.211Z,97.01
2017-10-17T01:52:16.683Z,96.75
2017-10-17T01:55:06.674Z,97.27
2017-10-17T01:57:47.374Z,96.89
2017-10-17T02:00:16.417Z,96.81
2017-10-17T02:02:44.926Z,96.82
2017-10-17T02:05:13.382Z,97.33
2017-10-17T02:07:53.529Z,97.92
2017-10-17T02:10:22.745Z,98.37
2017-10-17T02:12:51.209Z,97.65
2017-10-17T02:15:20.423Z,98.92
2017-10-17T02:18:27.316Z,99.21
2017-10-17T02:21:07.475Z,99.57
2017-10-17T02:23:35.954Z,99.27
2017-10-17T02:26:23.793Z,99.36
2017-10-17T02:29:03.533Z,98.92
2017-10-17T02:31:32.781Z,98.79
2017-10-17T02:34:23.757Z,98.75
2017-10-17T02:36:52.213Z,99.35
2017-10-17T02:39:20.677Z,98.65
2017-10-17T02:41:49.885Z,98.89
2017-10-17T02:44:18.344Z,98.92
2017-10-17T02:46:49.182Z,98.40
2017-10-17T02:49:19.344Z,98.61
2017-10-17T02:51:47.835Z,98.43
2017-10-17T02:54:16.302Z,98.55
2017-10-17T02:56:44.742Z,98.47
2017-10-17T02:59:14.922Z,98.12
2017-10-17T03:01:55.021Z,98.31
2017-10-17T03:04:26.769Z,97.88
2017-10-17T03:06:55.210Z,97.95
2017-10-17T03:09:23.678Z,97.95
2017-10-17T03:11:52.122Z,98.13
2017-10-17T03:14:35.806Z,98.00
2017-10-17T03:17:04.255Z,98.18
2017-10-17T03:19:33.481Z,97.75
2017-10-17T03:22:04.309Z,97.84
2017-10-17T03:24:48.011Z,97.63
2017-10-17T03:27:16.554Z,97.58
2017-10-17T03:29:45.033Z,97.52
2017-10-17T03:32:13.503Z,97.42
2017-10-17T03:34:52.826Z,97.44
2017-10-17T03:37:35.693Z,97.62
2017-10-17T03:40:26.653Z,97.37
2017-10-17T03:43:01.335Z,97.33
2017-10-17T03:45:29.898Z,97.07
2017-10-17T03:48:01.343Z,96.88
2017-10-17T03:50:44.783Z,96.70
2017-10-17T03:56:24.884Z,95.98
2017-10-17T03:58:55.589Z,95.93
2017-10-17T04:01:33.973Z,95.65
2017-10-17T04:07:26.674Z,95.87
2017-10-17T04:13:15.351Z,95.50
2017-10-17T04:15:43.793Z,95.42
2017-10-17T04:18:26.546Z,95.21
2017-10-17T04:20:58.421Z,95.45
2017-10-17T04:23:31.291Z,95.08
2017-10-17T04:26:19.233Z,94.63
2017-10-17T04:28:48.470Z,94.45
2017-10-17T04:31:28.486Z,94.23
2017-10-17T04:37:19.205Z,94.13
2017-10-17T04:39:47.684Z,94.06
2017-10-17T04:45:47.337Z,93.71
2017-10-17T04:52:10.098Z,93.62
2017-10-17T04:54:55.133Z,93.70
2017-10-17T04:57:26.827Z,93.95
2017-10-17T05:00:12.613Z,93.85
2017-10-17T05:06:09.013Z,93.62
2017-10-17T05:09:02.993Z,93.75
2017-10-17T05:11:32.148Z,93.68
2017-10-17T05:17:16.940Z,93.55
2017-10-17T05:19:50.674Z,93.45
2017-10-17T05:22:23.557Z,93.36
2017-10-17T05:24:52.631Z,93.10
2017-10-17T05:27:32.879Z,92.90
2017-10-17T05:30:04.843Z,92.98
2017-10-17T05:32:33.331Z,92.86
2017-10-17T05:35:01.915Z,92.84
2017-10-17T05:37:30.363Z,92.92
2017-10-17T05:40:01.007Z,93.14
2017-10-17T05:42:29.505Z,93.02
2017-10-17T05:44:57.995Z,93.20
2017-10-17T05:50:56.885Z,93.04
2017-10-17T05:53:25.333Z,92.96
2017-10-17T05:55:53.814Z,92.84
2017-10-17T05:58:22.257Z,92.84
2017-10-17T06:00:50.730Z,92.66
2017-10-17T06:03:19.177Z,92.91
2017-10-17T06:05:48.407Z,92.68
2017-10-17T06:08:16.867Z,92.69
2017-10-17T06:10:46.097Z,92.54
2017-10-17T06:13:14.560Z,92.50
2017-10-17T06:15:43.062Z,92.53
2017-10-17T06:18:11.529Z,92.43
2017-10-17T06:20:39.993Z,92.61
2017-10-17T06:23:09.321Z,92.60
2017-10-17T06:25:37.760Z,92.52
2017-10-17T06:28:06.999Z,92.54
2017-10-17T06:30:35.489Z,92.32
2017-10-17T06:33:04.074Z,91.94
2017-10-17T06:35:32.551Z,91.79
2017-10-17T06:38:01.021Z,91.45
2017-10-17T06:40:29.529Z,91.21
2017-10-17T06:42:57.993Z,91.06
2017-10-17T06:45:26.441Z,91.37
2017-10-17T06:47:55.698Z,91.02
2017-10-17T06:50:24.171Z,90.83
2017-10-17T06:52:52.609Z,90.70
2017-10-17T06:55:21.943Z,90.68
2017-10-17T06:57:50.383Z,90.82
2017-10-17T07:00:19.615Z,90.40
2017-10-17T07:02:48.060Z,90.49
2017-10-17T07:05:17.293Z,90.28
2017-10-17T07:07:46.035Z,90.07
2017-10-17T07:10:14.507Z,89.84
2017-10-17T07:12:42.955Z,89.76
2017-10-17T07:15:11.422Z,89.68
2017-10-17T07:17:39.865Z,89.43
2017-10-17T07:20:08.346Z,89.43
2017-10-17T07:22:36.884Z,89.01
2017-10-17T07:25:05.352Z,89.25
2017-10-17T07:27:33.855Z,89.17
2017-10-17T07:30:02.321Z,89.02
2017-10-17T07:32:30.785Z,88.59
2017-10-17T07:34:59.993Z,89.03
2017-10-17T07:37:28.498Z,88.66
2017-10-17T07:39:56.950Z,88.77
2017-10-17T07:42:25.465Z,88.69
2017-10-17T07:44:53.911Z,88.51
2017-10-17T07:47:23.149Z,88.39
2017-10-17T07:49:51.627Z,88.29
2017-10-17T07:52:20.093Z,88.00
2017-10-17T07:54:48.538Z,88.24
2017-10-17T07:57:17.779Z,88.19
2017-10-17T07:59:46.221Z,88.02
2017-10-17T08:02:15.450Z,88.04
2017-10-17T08:04:43.889Z,87.65
2017-10-17T08:07:12.357Z,87.28
2017-10-17T08:09:40.798Z,87.05
2017-10-17T08:12:09.269Z,86.99
2017-10-17T08:14:37.705Z,86.81
2017-10-17T08:17:06.254Z,86.81
2017-10-17T08:19:34.725Z,86.66
2017-10-17T08:22:03.222Z,86.78
2017-10-17T08:24:31.691Z,86.36
2017-10-17T08:27:00.134Z,86.27
2017-10-17T08:29:29.373Z,86.32
2017-10-17T08:31:57.871Z,85.85
2017-10-17T08:34:26.445Z,85.37
2017-10-17T08:36:54.920Z,85.26
2017-10-17T08:39:23.416Z,85.04
2017-10-17T08:41:51.857Z,84.65
2017-10-17T08:44:21.193Z,84.29
2017-10-17T08:46:49.682Z,84.18
2017-10-17T08:49:18.978Z,83.61
2017-10-17T08:51:47.426Z,83.52
2017-10-17T08:54:16.658Z,83.56
2017-10-17T08:56:45.106Z,83.45
2017-10-17T08:59:14.314Z,83.43
2017-10-17T09:01:42.793Z,82.99
2017-10-17T09:04:11.244Z,82.90
2017-10-17T09:06:39.709Z,82.52
2017-10-17T09:09:08.149Z,82.48
2017-10-17T09:11:36.618Z,81.97
2017-10-17T09:14:05.830Z,81.79
2017-10-17T09:16:34.302Z,81.56
2017-10-17T09:19:02.748Z,81.15
2017-10-17T09:21:31.222Z,81.16
2017-10-17T09:23:59.676Z,80.89
2017-10-17T09:26:28.136Z,80.14
2017-10-17T09:28:56.640Z,80.11
2017-10-17T09:31:25.224Z,80.13
2017-10-17T09:33:53.670Z,80.04
2017-10-17T09:36:22.874Z,79.93
2017-10-17T09:38:52.205Z,80.15
2017-10-17T09:41:20.645Z,79.59
2017-10-17T09:43:49.873Z,79.31
2017-10-17T09:46:18.316Z,79.31
2017-10-17T09:48:47.550Z,79.82
2017-10-17T09:51:15.994Z,79.02
2017-10-17T09:53:44.457Z,79.28
2017-10-17T09:56:12.898Z,78.46
2017-10-17T09:58:41.361Z,79.02
2017-10-17T10:01:10.572Z,79.02
2017-10-17T10:03:39.037Z,79.47
2017-10-17T10:06:08.248Z,78.37
2017-10-17T10:08:36.750Z,78.44
2017-10-17T10:11:05.189Z,77.90
2017-10-17T10:13:34.405Z,77.76
2017-10-17T10:16:03.638Z,77.32
2017-10-17T10:18:32.078Z,77.12
2017-10-17T10:21:01.315Z,76.57
2017-10-17T10:23:29.761Z,76.21
2017-10-17T10:25:58.998Z,76.17
2017-10-17T10:28:27.441Z,75.79
2017-10-17T10:30:56.679Z,75.42
2017-10-17T10:33:25.124Z,75.39
2017-10-17T10:35:54.355Z,74.81
2017-10-17T10:38:22.801Z,74.94
2017-10-17T10:40:52.035Z,74.31
2017-10-17T10:43:20.526Z,74.65
2017-10-17T10:45:49.097Z,74.21
2017-10-17T10:48:17.554Z,74.29
2017-10-17T10:50:46.890Z,74.09
2017-10-17T10:53:15.329Z,74.16
2017-10-17T10:55:44.566Z,74.23
2017-10-17T10:58:13.042Z,74.31
2017-10-17T11:00:41.482Z,73.60
2017-10-17T11:03:10.845Z,73.55
2017-10-17T11:05:39.285Z,73.87
2017-10-17T11:08:08.610Z,74.00
2017-10-17T11:10:37.058Z,73.80
2017-10-17T11:13:06.289Z,73.89
2017-10-17T11:15:34.730Z,73.59
2017-10-17T11:18:03.961Z,73.57
2017-10-17T11:20:32.401Z,73.56
2017-10-17T11:23:00.861Z,73.55
2017-10-17T11:25:29.300Z,73.42
2017-10-17T11:27:57.761Z,73.74
2017-10-17T11:30:26.974Z,73.77
2017-10-17T11:32:55.441Z,73.38
2017-10-17T11:35:24.654Z,73.60
2017-10-17T11:37:53.121Z,73.41
2017-10-17T11:40:40.186Z,73.62
2017-10-17T11:43:26.419Z,73.52
2017-10-17T11:45:54.870Z,73.73
2017-10-17T11:48:23.341Z,73.96
2017-10-17T11:50:51.814Z,73.82
2017-10-17T11:53:20.265Z,73.73
2017-10-17T11:55:49.494Z,74.00
2017-10-17T11:58:17.933Z,73.69
2017-10-17T12:00:47.191Z,74.17
2017-10-17T12:03:15.666Z,74.04
2017-10-17T12:05:44.133Z,74.15
2017-10-17T12:08:12.632Z,74.09
2017-10-17T12:10:41.097Z,74.41
2017-10-17T12:13:09.543Z,74.28
2017-10-17T12:15:38.783Z,74.56
2017-10-17T12:18:07.234Z,74.80
2017-10-17T12:20:36.465Z,74.68
2017-10-17T12:23:05.065Z,74.75
2017-10-17T12:25:33.552Z,74.74
2017-10-17T12:28:02.031Z,74.74
2017-10-17T12:30:30.474Z,74.96
2017-10-17T12:32:59.711Z,74.83
2017-10-17T12:35:28.153Z,74.69
2017-10-17T12:37:57.390Z,74.77
2017-10-17T12:40:25.833Z,75.03
2017-10-17T12:42:55.173Z,74.54
2017-10-17T12:45:23.618Z,74.78
2017-10-17T12:47:52.955Z,74.55
2017-10-17T12:50:21.439Z,74.64
2017-10-17T12:52:49.901Z,74.71
2017-10-17T12:55:18.354Z,74.75
2017-10-17T12:57:47.586Z,75.12
2017-10-17T13:00:16.029Z,74.81
2017-10-17T13:02:45.266Z,75.41
2017-10-17T13:05:13.763Z,75.23
2017-10-17T13:07:42.230Z,75.30
2017-10-17T13:10:10.674Z,75.24
2017-10-17T13:12:39.885Z,75.41
2017-10-17T13:15:09.126Z,75.66
2017-10-17T13:17:37.565Z,75.48
2017-10-17T13:20:06.796Z,75.29
2017-10-17T13:22:35.291Z,75.28
2017-10-17T13:25:03.758Z,74.87
2017-10-17T13:27:32.201Z,75.30
2017-10-17T13:30:01.510Z,75.10
2017-10-17T13:32:30.722Z,75.17
2017-10-17T13:34:59.233Z,75.34
2017-10-17T13:37:27.682Z,75.04
2017-10-17T13:39:57.008Z,75.23
2017-10-17T13:42:25.449Z,75.20
2017-10-17T13:44:54.685Z,75.21
2017-10-17T13:47:23.127Z,75.32
2017-10-17T13:49:52.386Z,75.17
2017-10-17T13:52:20.837Z,75.03
2017-10-17T13:54:49.280Z,75.15
2017-10-17T13:57:17.824Z,74.75
2017-10-17T13:59:46.301Z,74.52
2017-10-17T14:02:14.778Z,74.77
2017-10-17T14:04:43.270Z,74.18
2017-10-17T14:07:11.856Z,74.51
2017-10-17T14:09:40.344Z,74.50
2017-10-17T14:12:08.815Z,73.81
2017-10-17T14:14:37.270Z,73.91
2017-10-17T14:17:06.507Z,74.04
2017-10-17T14:19:34.973Z,74.02
2017-10-17T14:22:03.470Z,74.50
2017-10-17T14:24:31.912Z,74.67
2017-10-17T14:27:01.151Z,74.84
2017-10-17T14:29:29.622Z,74.46
2017-10-17T14:31:58.091Z,74.34
2017-10-17T14:34:26.529Z,74.33
2017-10-17T14:36:55.067Z,74.21
2017-10-17T14:39:23.525Z,74.71
2017-10-17T14:41:52.728Z,74.20
2017-10-17T14:44:21.239Z,74.02
2017-10-17T14:46:49.714Z,74.37
2017-10-17T14:49:18.181Z,75.02
2017-10-17T14:51:46.637Z,75.04
2017-10-17T14:54:15.883Z,75.01
2017-10-17T14:56:44.359Z,75.67
2017-10-17T14:59:12.829Z,77.20
2017-10-17T15:01:41.326Z,76.39
2017-10-17T15:04:09.903Z,76.03
2017-10-17T15:06:38.346Z,76.84
2017-10-17T15:09:07.573Z,77.45
2017-10-17T15:11:36.018Z,76.96
2017-10-17T15:14:05.252Z,77.56
2017-10-17T15:16:33.707Z,76.64
2017-10-17T15:19:03.050Z,76.96
2017-10-17T15:21:31.538Z,76.77
2017-10-17T15:23:59.978Z,76.10
2017-10-17T15:26:29.298Z,76.18
2017-10-17T15:28:57.737Z,75.93
2017-10-17T15:31:26.286Z,75.79
2017-10-17T15:33:54.734Z,75.97
2017-10-17T15:36:23.962Z,75.51
2017-10-17T15:38:52.401Z,75.60
2017-10-17T15:41:21.743Z,75.45
2017-10-17T15:43:50.186Z,75.86
2017-10-17T15:46:19.413Z,75.85
2017-10-17T15:48:47.852Z,76.26
2017-10-17T15:51:16.317Z,76.23
2017-10-17T15:53:44.753Z,76.03
2017-10-17T15:56:13.255Z,76.35
2017-10-17T15:58:41.852Z,76.88
2017-10-17T16:01:10.299Z,77.24
2017-10-17T16:03:38.766Z,77.35
2017-10-17T16:06:07.969Z,78.13
2017-10-17T16:08:37.203Z,78.48
2017-10-17T16:11:05.642Z,78.80
2017-10-17T16:13:34.874Z,78.96
2017-10-17T16:16:03.313Z,79.20
2017-10-17T16:18:32.549Z,79.58
2017-10-17T16:21:00.998Z,79.87
2017-10-17T16:23:30.230Z,80.53
2017-10-17T16:25:58.676Z,80.32
2017-10-17T16:28:27.908Z,80.42
2017-10-17T16:30:56.345Z,80.55
2017-10-17T16:33:24.821Z,80.52
2017-10-17T16:35:53.269Z,80.77
2017-10-17T16:38:21.717Z,81.01
2017-10-17T16:40:51.051Z,80.95
2017-10-17T16:43:19.510Z,81.12
2017-10-17T16:45:47.985Z,81.66
2017-10-17T16:48:16.493Z,81.88
2017-10-17T16:50:44.965Z,82.20
2017-10-17T16:53:13.458Z,82.37
2017-10-17T16:55:41.919Z,82.66
2017-10-17T16:58:10.374Z,83.43
2017-10-17T17:00:39.749Z,83.63
2017-10-17T17:03:08.192Z,84.14
2017-10-17T17:05:36.657Z,84.46
2017-10-17T17:08:05.865Z,85.08
2017-10-17T17:10:34.338Z,85.37
2017-10-17T17:13:03.545Z,86.03
2017-10-17T17:15:32.155Z,86.05
2017-10-17T17:18:00.613Z,86.64
2017-10-17T17:20:29.053Z,86.78
2017-10-17T17:22:57.600Z,87.00
2017-10-17T17:25:26.041Z,87.28
2017-10-17T17:27:55.269Z,87.43
2017-10-17T17:30:23.773Z,87.71
2017-10-17T17:32:52.343Z,87.74
2017-10-17T17:35:20.785Z,87.58
2017-10-17T17:37:50.014Z,88.18
2017-10-17T17:40:18.512Z,88.47
2017-10-17T17:42:46.978Z,88.50
2017-10-17T17:45:15.425Z,88.53
2017-10-17T17:47:44.654Z,89.46
2017-10-17T17:50:13.099Z,89.34
2017-10-17T17:52:41.629Z,89.40
2017-10-17T17:55:10.126Z,89.61
2017-10-17T17:57:38.596Z,89.60
2017-10-17T18:00:07.052Z,89.53
2017-10-17T18:02:36.381Z,89.53
2017-10-17T18:05:04.821Z,90.39
2017-10-17T18:07:34.062Z,90.44
2017-10-17T18:10:02.515Z,90.34
2017-10-17T18:12:31.731Z,91.12
2017-10-17T18:15:00.223Z,91.22
2017-10-17T18:17:28.714Z,91.34
2017-10-17T18:19:57.182Z,92.25
2017-10-17T18:22:25.680Z,91.90
2017-10-17T18:24:54.145Z,92.17
2017-10-17T18:27:22.634Z,92.47
2017-10-17T18:29:51.217Z,92.23
2017-10-17T18:32:19.654Z,92.72
2017-10-17T18:34:48.886Z,92.61
2017-10-17T18:37:17.332Z,92.39
2017-10-17T18:39:46.571Z,92.81
2017-10-17T18:42:15.025Z,92.57
2017-10-17T18:44:44.234Z,93.69
2017-10-17T18:47:12.747Z,93.00
2017-10-17T18:49:41.199Z,93.84
2017-10-17T18:52:09.704Z,93.30
2017-10-17T18:54:38.161Z,93.52
2017-10-17T18:57:07.393Z,93.26
2017-10-17T18:59:35.874Z,93.61
2017-10-17T19:02:04.414Z,93.72
2017-10-17T19:04:33.658Z,93.63
2017-10-17T19:07:02.238Z,94.15
2017-10-17T19:09:30.682Z,93.87
2017-10-17T19:11:59.922Z,93.85
2017-10-17T19:14:28.711Z,94.05
2017-10-17T19:16:57.193Z,93.93
2017-10-17T19:19:25.671Z,93.82
2017-10-17T19:21:54.115Z,93.54
2017-10-17T19:24:23.459Z,93.75
2017-10-17T19:26:51.900Z,93.68
2017-10-17T19:29:21.140Z,93.78
2017-10-17T19:31:49.582Z,93.96
2017-10-17T19:34:18.823Z,93.69
2017-10-17T19:36:47.262Z,93.81
2017-10-17T19:39:16.489Z,94.81
2017-10-17T19:41:44.938Z,95.03
2017-10-17T19:44:14.288Z,94.84
2017-10-17T19:46:42.761Z,94.44
2017-10-17T19:49:11.250Z,94.25
2017-10-17T19:51:39.708Z,94.27
2017-10-17T19:54:08.174Z,94.09
2017-10-17T19:56:37.406Z,93.92
2017-10-17T19:59:05.882Z,93.60
2017-10-17T20:01:34.377Z,94.49
2017-10-17T20:04:02.846Z,94.45
2017-10-17T20:06:31.334Z,94.10
2017-10-17T20:08:59.805Z,94.11
2017-10-17T20:11:28.306Z,93.68
2017-10-17T20:13:56.753Z,94.41
2017-10-17T20:16:26.090Z,94.03
2017-10-17T20:18:54.536Z,94.14
2017-10-17T20:21:23.771Z,94.11
2017-10-17T20:23:52.218Z,94.01
2017-10-17T20:26:20.727Z,94.14
2017-10-17T20:28:49.165Z,94.23
2017-10-17T20:31:18.393Z,94.37
2017-10-17T20:33:46.894Z,94.57
2017-10-17T20:36:15.365Z,94.36
2017-10-17T20:38:43.810Z,94.19
2017-10-17T20:41:13.159Z,94.44
2017-10-17T20:43:41.601Z,94.73
2017-10-17T20:46:10.829Z,94.67
2017-10-17T20:48:39.269Z,95.10
2017-10-17T20:51:08.514Z,95.36
2017-10-17T20:53:36.985Z,94.24
2017-10-17T20:56:05.481Z,94.63
2017-10-17T20:58:33.941Z,94.51
2017-10-17T21:01:02.450Z,94.92
2017-10-17T21:03:30.927Z,94.33
2017-10-17T21:05:59.407Z,94.36
2017-10-17T21:08:27.877Z,94.72
2017-10-17T21:10:56.318Z,94.88
2017-10-17T21:13:24.786Z,94.87
2017-10-17T21:15:53.342Z,95.45
2017-10-17T21:18:21.801Z,94.46
2017-10-17T21:20:50.299Z,95.05
2017-10-17T21:23:18.765Z,95.48
2017-10-17T21:25:47.264Z,94.86
2017-10-17T21:28:15.711Z,95.49
2017-10-17T21:30:44.941Z,95.20
2017-10-17T21:33:13.435Z,96.25
2017-10-17T21:35:41.897Z,95.65
2017-10-17T21:38:10.362Z,95.53
2017-10-17T21:40:39.692Z,96.31
2017-10-17T21:43:08.149Z,96.37
2017-10-17T21:45:36.613Z,95.70
2017-10-17T21:48:05.817Z,96.09
2017-10-17T21:50:35.153Z,95.97
2017-10-17T21:53:03.650Z,97.04
2017-10-17T21:55:32.201Z,96.70
2017-10-17T21:58:00.711Z,96.37
2017-10-17T22:00:46.846Z,95.94
2017-10-17T22:03:15.297Z,96.29
2017-10-17T22:05:43.763Z,96.59
2017-10-17T22:08:12.253Z,97.27
2017-10-17T22:10:40.693Z,96.94
2017-10-17T22:13:10.035Z,97.01
2017-10-17T22:15:38.480Z,98.05
2017-10-17T22:18:07.818Z,97.75
2017-10-17T22:20:36.261Z,97.56
2017-10-17T22:23:05.603Z,97.79
2017-10-17T22:25:34.050Z,97.91
2017-10-17T22:28:02.560Z,97.99
2017-10-17T22:30:31.010Z,97.64
2017-10-17T22:33:00.242Z,97.56
2017-10-17T22:35:28.699Z,97.53
2017-10-17T22:37:57.131Z,97.51
2017-10-17T22:40:25.686Z,97.25
2017-10-17T22:42:54.137Z,97.81
2017-10-17T22:45:23.476Z,97.75
2017-10-17T22:47:51.965Z,98.08
2017-10-17T22:50:20.433Z,97.89
2017-10-17T22:52:48.877Z,97.83
2017-10-17T22:55:18.212Z,97.63
2017-10-17T22:57:46.653Z,97.59
2017-10-17T23:00:15.900Z,97.79
2017-10-17T23:02:44.354Z,98.10
2017-10-17T23:05:12.837Z,97.94
2017-10-17T23:07:41.288Z,98.13
2017-10-17T23:10:09.761Z,97.73
2017-10-17T23:12:38.201Z,97.84
2017-10-17T23:15:06.694Z,97.98
2017-10-17T23:17:52.829Z,98.01
2017-10-17T23:20:36.216Z,97.94
2017-10-17T23:23:04.699Z,97.88
2017-10-17T23:25:33.291Z,97.78
2017-10-17T23:28:01.747Z,97.94
2017-10-17T23:30:30.200Z,97.84
2017-10-17T23:32:59.547Z,97.93
2017-10-17T23:35:28.030Z,98.01
2017-10-17T23:37:56.504Z,97.79
2017-10-17T23:40:24.945Z,97.74
2017-10-17T23:42:54.177Z,97.54
2017-10-17T23:45:22.623Z,97.79
2017-10-17T23:47:51.099Z,97.84
2017-10-17T23:50:19.547Z,97.51
2017-10-17T23:52:48.019Z,97.58
2017-10-17T23:55:16.472Z,97.74
2017-10-17T23:57:45.705Z,97.84
